createdAt,value
2019-02-23T00:00:53.237Z,4.00
2019-02-23T00:01:53.191Z,4.00
2019-02-23T00:02:53.183Z,4.00
2019-02-23T00:03:53.188Z,4.00
2019-02-23T00:04:53.204Z,4.00
2019-02-23T00:05:54.150Z,4.00
2019-02-23T00:06:54.145Z,4.00
2019-02-23T00:07:53.134Z,4.00
2019-02-23T00:08:54.120Z,4.00
2019-02-23T00:09:53.123Z,4.00
2019-02-23T00:10:54.127Z,4.00
2019-02-23T00:11:54.082Z,4.00
2019-02-23T00:12:53.088Z,4.00
2019-02-23T00:13:54.069Z,4.00
2019-02-23T00:14:53.055Z,4.00
2019-02-23T00:15:54.047Z,4.00
2019-02-23T00:16:53.072Z,4.00
2019-02-23T00:17:53.027Z,4.00
2019-02-23T00:18:54.015Z,4.00
2019-02-23T00:19:53.008Z,4.00
2019-02-23T00:20:53.002Z,4.00
2019-02-23T00:21:54.013Z,4.00
2019-02-23T00:22:52.977Z,4.00
2019-02-23T00:23:53.963Z,4.00
2019-02-23T00:24:53.947Z,4.00
2019-02-23T00:25:52.937Z,4.00
2019-02-23T00:26:52.957Z,4.00
2019-02-23T00:27:53.921Z,4.00
2019-02-23T00:28:53.903Z,4.00
2019-02-23T00:29:53.893Z,4.00
2019-02-23T00:30:53.881Z,4.00
2019-02-23T00:31:53.882Z,4.00
2019-02-23T00:32:52.861Z,4.00
2019-02-23T00:33:52.889Z,4.00
2019-02-23T00:34:53.838Z,4.00
2019-02-23T00:35:52.851Z,4.00
2019-02-23T00:36:52.819Z,4.00
2019-02-23T00:37:52.815Z,4.00
2019-02-23T00:38:53.828Z,4.00
2019-02-23T00:39:53.789Z,4.00
2019-02-23T00:40:53.775Z,4.00
2019-02-23T00:41:53.767Z,4.00
2019-02-23T00:42:53.763Z,4.00
2019-02-23T00:43:53.757Z,4.00
2019-02-23T00:44:53.742Z,4.00
2019-02-23T00:45:53.719Z,4.00
2019-02-23T00:46:52.712Z,4.00
2019-02-23T00:47:52.709Z,4.00
2019-02-23T00:48:53.695Z,4.00
2019-02-23T00:49:53.691Z,4.00
2019-02-23T00:50:53.681Z,4.00
2019-02-23T00:51:52.659Z,4.00
2019-02-23T00:52:52.658Z,4.00
2019-02-23T00:53:53.631Z,4.00
2019-02-23T00:54:52.629Z,4.00
2019-02-23T00:55:52.623Z,4.00
2019-02-23T00:56:52.611Z,4.00
2019-02-23T00:57:53.603Z,4.00
2019-02-23T00:58:53.583Z,4.00
2019-02-23T00:59:53.572Z,4.00
2019-02-23T01:00:52.563Z,4.00
2019-02-23T01:01:53.365Z,4.00
2019-02-23T01:02:52.549Z,4.00
2019-02-23T01:03:52.527Z,4.00
2019-02-23T01:04:52.514Z,4.00
2019-02-23T01:05:53.512Z,4.00
2019-02-23T01:06:53.502Z,4.00
2019-02-23T01:07:52.493Z,4.00
2019-02-23T01:08:56.309Z,4.00
2019-02-23T01:09:52.514Z,4.00
2019-02-23T01:10:58.205Z,4.00
2019-02-23T01:11:53.443Z,4.00
2019-02-23T01:12:53.432Z,4.00
2019-02-23T01:13:52.438Z,4.00
2019-02-23T01:14:53.420Z,4.00
2019-02-23T01:15:53.396Z,4.00
2019-02-23T01:16:53.384Z,4.00
2019-02-23T01:17:52.375Z,4.00
2019-02-23T01:18:56.306Z,4.00
2019-02-23T01:19:53.354Z,4.00
2019-02-23T01:20:52.343Z,4.00
2019-02-23T01:21:52.335Z,4.00
2019-02-23T01:22:52.320Z,4.00
2019-02-23T01:23:53.312Z,4.00
2019-02-23T01:24:53.333Z,4.00
2019-02-23T01:25:53.287Z,4.00
2019-02-23T01:26:53.285Z,4.00
2019-02-23T01:27:53.274Z,4.00
2019-02-23T01:28:53.262Z,4.00
2019-02-23T01:29:53.247Z,4.00
2019-02-23T01:30:54.800Z,4.00
2019-02-23T01:31:53.232Z,4.00
2019-02-23T01:32:53.222Z,4.00
2019-02-23T01:33:53.229Z,4.00
2019-02-23T01:34:53.196Z,4.00
2019-02-23T01:35:52.185Z,4.00
2019-02-23T01:36:53.205Z,4.00
2019-02-23T01:37:52.174Z,4.00
2019-02-23T01:38:52.158Z,4.00
2019-02-23T01:39:53.146Z,4.00
2019-02-23T01:40:53.133Z,4.00
2019-02-23T01:41:52.128Z,4.00
2019-02-23T01:42:53.107Z,4.00
2019-02-23T01:43:53.125Z,4.00
2019-02-23T01:44:53.088Z,4.00
2019-02-23T01:45:53.077Z,4.00
2019-02-23T01:46:53.072Z,4.00
2019-02-23T01:47:52.059Z,4.00
2019-02-23T01:48:53.043Z,4.00
2019-02-23T01:49:58.955Z,4.00
2019-02-23T01:50:53.026Z,4.00
2019-02-23T01:51:53.011Z,4.00
2019-02-23T01:52:53.004Z,4.00
2019-02-23T01:53:52.992Z,4.00
2019-02-23T01:54:53.794Z,4.00
2019-02-23T01:55:52.968Z,4.00
2019-02-23T01:56:52.962Z,4.00
2019-02-23T01:57:52.946Z,4.00
2019-02-23T01:58:52.939Z,4.00
2019-02-23T01:59:51.935Z,4.00
2019-02-23T02:00:52.908Z,4.00
2019-02-23T02:01:52.907Z,4.00
2019-02-23T02:02:53.019Z,4.00
2019-02-23T02:03:52.881Z,4.00
2019-02-23T02:04:52.870Z,4.00
2019-02-23T02:05:52.853Z,4.00
2019-02-23T02:06:52.860Z,4.00
2019-02-23T02:07:52.836Z,4.00
2019-02-23T02:08:51.870Z,4.00
2019-02-23T02:09:51.827Z,4.00
2019-02-23T02:10:52.806Z,4.00
2019-02-23T02:11:51.793Z,4.00
2019-02-23T02:12:51.786Z,4.00
2019-02-23T02:13:52.780Z,4.00
2019-02-23T02:14:52.776Z,4.00
2019-02-23T02:15:51.756Z,4.00
2019-02-23T02:16:52.744Z,4.00
2019-02-23T02:17:52.732Z,4.00
2019-02-23T02:18:52.719Z,4.00
2019-02-23T02:19:51.718Z,4.00
2019-02-23T02:20:52.697Z,4.00
2019-02-23T02:21:52.689Z,4.00
2019-02-23T02:22:51.675Z,4.00
2019-02-23T02:23:52.668Z,4.00
2019-02-23T02:24:54.342Z,4.00
2019-02-23T02:25:52.645Z,4.00
2019-02-23T02:26:51.631Z,4.00
2019-02-23T02:27:52.622Z,4.00
2019-02-23T02:28:51.608Z,4.00
2019-02-23T02:29:51.626Z,4.00
2019-02-23T02:30:52.616Z,4.00
2019-02-23T02:31:51.576Z,4.00
2019-02-23T02:32:52.571Z,4.00
2019-02-23T02:33:52.556Z,4.00
2019-02-23T02:34:52.573Z,4.00
2019-02-23T02:35:52.530Z,4.00
2019-02-23T02:36:52.536Z,4.00
2019-02-23T02:37:52.508Z,4.00
2019-02-23T02:38:52.509Z,4.00
2019-02-23T02:39:52.513Z,4.00
2019-02-23T02:40:54.418Z,4.00
2019-02-23T02:41:52.473Z,4.00
2019-02-23T02:42:52.460Z,4.00
2019-02-23T02:43:52.447Z,4.00
2019-02-23T02:44:53.270Z,4.00
2019-02-23T02:45:52.447Z,4.00
2019-02-23T02:46:51.416Z,4.00
2019-02-23T02:47:52.276Z,4.00
2019-02-23T02:48:52.392Z,4.00
2019-02-23T02:49:51.384Z,4.00
2019-02-23T02:50:52.381Z,4.00
2019-02-23T02:51:52.395Z,4.00
2019-02-23T02:52:51.346Z,4.00
2019-02-23T02:53:52.356Z,4.00
2019-02-23T02:54:52.330Z,4.00
2019-02-23T02:55:51.590Z,4.00
2019-02-23T02:56:52.333Z,4.00
2019-02-23T02:57:52.294Z,4.00
2019-02-23T02:58:51.284Z,4.00
2019-02-23T02:59:54.770Z,4.00
2019-02-23T03:00:51.268Z,4.00
2019-02-23T03:01:51.290Z,4.00
2019-02-23T03:02:51.248Z,4.00
2019-02-23T03:03:52.234Z,4.00
2019-02-23T03:04:52.220Z,4.00
2019-02-23T03:05:54.766Z,4.00
2019-02-23T03:06:52.197Z,4.00
2019-02-23T03:07:52.185Z,4.00
2019-02-23T03:08:51.180Z,4.00
2019-02-23T03:09:52.167Z,4.00
2019-02-23T03:10:52.156Z,4.00
2019-02-23T03:11:51.171Z,4.00
2019-02-23T03:12:52.130Z,4.00
2019-02-23T03:13:51.326Z,4.00
2019-02-23T03:14:52.108Z,4.00
2019-02-23T03:15:51.110Z,4.00
2019-02-23T03:16:51.090Z,4.00
2019-02-23T03:17:52.087Z,4.00
2019-02-23T03:18:52.082Z,4.00
2019-02-23T03:19:51.069Z,4.00
2019-02-23T03:20:54.762Z,4.00
2019-02-23T03:21:52.041Z,4.00
2019-02-23T03:22:51.053Z,4.00
2019-02-23T03:23:52.020Z,4.00
2019-02-23T03:24:52.002Z,4.00
2019-02-23T03:25:52.042Z,4.00
2019-02-23T03:26:51.980Z,4.00
2019-02-23T03:27:50.974Z,4.00
2019-02-23T03:28:50.956Z,4.00
2019-02-23T03:29:50.955Z,4.00
2019-02-23T03:30:50.945Z,4.00
2019-02-23T03:31:50.968Z,4.00
2019-02-23T03:32:51.917Z,4.00
2019-02-23T03:33:51.908Z,4.00
2019-02-23T03:34:51.894Z,4.00
2019-02-23T03:35:51.886Z,4.00
2019-02-23T03:36:54.753Z,4.00
2019-02-23T03:37:51.865Z,4.00
2019-02-23T03:38:51.854Z,4.00
2019-02-23T03:39:51.842Z,4.00
2019-02-23T03:40:51.841Z,4.00
2019-02-23T03:41:51.820Z,4.00
2019-02-23T03:42:51.839Z,4.00
2019-02-23T03:43:50.814Z,4.00
2019-02-23T03:44:50.791Z,4.00
2019-02-23T03:45:50.778Z,4.00
2019-02-23T03:46:50.773Z,4.00
2019-02-23T03:47:50.758Z,4.00
2019-02-23T03:48:50.749Z,4.00
2019-02-23T03:49:51.732Z,4.00
2019-02-23T03:50:50.731Z,4.00
2019-02-23T03:51:50.760Z,4.00
2019-02-23T03:52:50.700Z,4.00
2019-02-23T03:54:50.682Z,4.00
2019-02-23T03:55:51.682Z,4.00
2019-02-23T03:56:51.680Z,4.00
2019-02-23T03:57:51.655Z,4.00
2019-02-23T03:58:51.637Z,4.00
2019-02-23T03:59:51.626Z,4.00
2019-02-23T04:00:50.620Z,4.00
2019-02-23T04:01:50.608Z,4.00
2019-02-23T04:02:51.642Z,4.00
2019-02-23T04:03:50.590Z,4.00
2019-02-23T04:04:51.577Z,4.00
2019-02-23T04:05:51.563Z,4.00
2019-02-23T04:06:50.562Z,4.00
2019-02-23T04:07:51.544Z,4.00
2019-02-23T04:08:51.564Z,4.00
2019-02-23T04:09:51.522Z,4.00
2019-02-23T04:10:51.531Z,4.00
2019-02-23T04:11:51.506Z,4.00
2019-02-23T04:12:51.485Z,4.00
2019-02-23T04:13:50.483Z,4.00
2019-02-23T04:14:51.493Z,4.00
2019-02-23T04:15:51.458Z,4.00
2019-02-23T04:16:50.444Z,4.00
2019-02-23T04:17:50.441Z,4.00
2019-02-23T04:18:53.233Z,4.00
2019-02-23T04:19:50.423Z,4.00
2019-02-23T04:21:01.272Z,4.00
2019-02-23T04:21:51.386Z,4.00
2019-02-23T04:22:50.385Z,4.00
2019-02-23T04:23:51.410Z,4.00
2019-02-23T04:24:51.358Z,4.00
2019-02-23T04:25:51.352Z,4.00
2019-02-23T04:26:51.339Z,4.00
2019-02-23T04:27:52.230Z,4.00
2019-02-23T04:28:51.312Z,4.00
2019-02-23T04:29:50.336Z,4.00
2019-02-23T04:30:51.288Z,4.00
2019-02-23T04:31:50.282Z,4.00
2019-02-23T04:32:50.272Z,4.00
2019-02-23T04:33:51.260Z,4.00
2019-02-23T04:34:51.282Z,4.00
2019-02-23T04:35:51.240Z,4.00
2019-02-23T04:36:50.232Z,4.00
2019-02-23T04:37:50.233Z,4.00
2019-02-23T04:38:51.202Z,4.00
2019-02-23T04:39:50.215Z,4.00
2019-02-23T04:40:51.183Z,4.00
2019-02-23T04:41:50.178Z,4.00
2019-02-23T04:42:53.746Z,4.00
2019-02-23T04:43:51.148Z,4.00
2019-02-23T04:44:51.164Z,4.00
2019-02-23T04:45:51.124Z,4.00
2019-02-23T04:46:51.116Z,4.00
2019-02-23T04:47:50.122Z,4.00
2019-02-23T04:48:51.105Z,4.00
2019-02-23T04:49:50.089Z,4.00
2019-02-23T04:50:51.078Z,4.00
2019-02-23T04:51:50.068Z,4.00
2019-02-23T04:52:51.069Z,4.00
2019-02-23T04:53:51.038Z,4.00
2019-02-23T04:54:51.035Z,4.00
2019-02-23T04:55:50.053Z,4.00
2019-02-23T04:56:53.733Z,4.00
2019-02-23T04:57:51.009Z,4.00
2019-02-23T04:58:49.991Z,4.00
2019-02-23T04:59:50.979Z,4.00
2019-02-23T05:00:49.966Z,4.00
2019-02-23T05:01:49.969Z,4.00
2019-02-23T05:02:50.951Z,4.00
2019-02-23T05:03:50.933Z,4.00
2019-02-23T05:04:50.926Z,4.00
2019-02-23T05:05:50.909Z,4.00
2019-02-23T05:06:50.969Z,4.00
2019-02-23T05:07:50.891Z,4.00
2019-02-23T05:08:49.878Z,4.00
2019-02-23T05:09:49.879Z,4.00
2019-02-23T05:10:50.860Z,4.00
2019-02-23T05:11:51.622Z,4.00
2019-02-23T05:12:50.873Z,4.00
2019-02-23T05:13:50.821Z,4.00
2019-02-23T05:14:49.827Z,4.00
2019-02-23T05:15:49.808Z,4.00
2019-02-23T05:16:50.811Z,4.00
2019-02-23T05:17:50.808Z,4.00
2019-02-23T05:18:50.769Z,4.00
2019-02-23T05:19:50.773Z,4.00
2019-02-23T05:20:49.755Z,4.00
2019-02-23T05:21:50.740Z,4.00
2019-02-23T05:22:50.767Z,4.00
2019-02-23T05:23:50.730Z,4.00
2019-02-23T05:24:53.359Z,4.00
2019-02-23T05:25:53.215Z,4.00
2019-02-23T05:26:49.687Z,4.00
2019-02-23T05:27:52.215Z,4.00
2019-02-23T05:28:52.207Z,4.00
2019-02-23T05:29:49.660Z,4.00
2019-02-23T05:30:50.647Z,4.00
2019-02-23T05:31:50.632Z,0.00
2019-02-23T05:32:50.620Z,0.00
2019-02-23T05:33:50.639Z,4.00
2019-02-23T05:34:50.601Z,4.00
2019-02-23T05:35:49.595Z,4.00
2019-02-23T05:36:49.587Z,4.00
2019-02-23T05:37:50.570Z,4.00
2019-02-23T05:38:50.596Z,8.00
2019-02-23T05:39:49.546Z,4.00
2019-02-23T05:40:50.537Z,4.00
2019-02-23T05:41:50.562Z,4.00
2019-02-23T05:43:00.356Z,4.00
2019-02-23T05:43:50.532Z,8.00
2019-02-23T05:44:49.498Z,8.00
2019-02-23T05:45:49.479Z,8.00
2019-02-23T05:46:50.471Z,12.00
2019-02-23T05:47:49.464Z,12.00
2019-02-23T05:48:50.499Z,16.00
2019-02-23T05:49:49.446Z,16.00
2019-02-23T05:50:50.428Z,20.00
2019-02-23T05:51:50.413Z,24.00
2019-02-23T05:52:50.407Z,28.00
2019-02-23T05:53:50.396Z,28.00
2019-02-23T05:54:49.413Z,32.00
2019-02-23T05:55:50.370Z,32.00
2019-02-23T05:56:49.363Z,36.00
2019-02-23T05:57:49.354Z,44.00
2019-02-23T05:58:50.342Z,48.00
2019-02-23T05:59:50.343Z,56.00
2019-02-23T06:00:50.318Z,60.00
2019-02-23T06:01:49.308Z,68.00
2019-02-23T06:02:53.197Z,76.00
2019-02-23T06:03:52.200Z,84.00
2019-02-23T06:04:50.287Z,92.00
2019-02-23T06:05:50.284Z,96.00
2019-02-23T06:06:50.259Z,104.00
2019-02-23T06:08:49.230Z,124.00
2019-02-23T06:09:50.248Z,132.00
2019-02-23T06:10:51.697Z,144.00
2019-02-23T06:11:50.205Z,152.00
2019-02-23T06:12:50.193Z,160.00
2019-02-23T06:13:49.218Z,172.00
2019-02-23T06:14:50.196Z,184.00
2019-02-23T06:15:50.178Z,200.00
2019-02-23T06:16:50.152Z,208.00
2019-02-23T06:17:50.150Z,220.00
2019-02-23T06:18:50.283Z,232.00
2019-02-23T06:19:50.115Z,244.00
2019-02-23T06:20:50.106Z,260.00
2019-02-23T06:21:53.587Z,276.00
2019-02-23T06:22:50.080Z,292.00
2019-02-23T06:23:50.080Z,304.00
2019-02-23T06:24:50.097Z,324.00
2019-02-23T06:25:49.051Z,340.00
2019-02-23T06:26:50.037Z,356.00
2019-02-23T06:27:50.036Z,376.00
2019-02-23T06:28:50.019Z,392.00
2019-02-23T06:29:49.006Z,404.00
2019-02-23T06:30:51.559Z,412.00
2019-02-23T06:31:48.988Z,420.00
2019-02-23T06:32:49.972Z,440.00
2019-02-23T06:33:49.965Z,460.00
2019-02-23T06:34:50.269Z,484.00
2019-02-23T06:35:48.945Z,512.00
2019-02-23T06:36:49.931Z,540.00
2019-02-23T06:37:49.913Z,560.00
2019-02-23T06:38:48.908Z,576.00
2019-02-23T06:39:48.934Z,568.00
2019-02-23T06:40:48.891Z,564.00
2019-02-23T06:41:49.876Z,576.00
2019-02-23T06:42:49.683Z,588.00
2019-02-23T06:43:48.861Z,608.00
2019-02-23T06:44:48.975Z,632.00
2019-02-23T06:45:49.830Z,664.00
2019-02-23T06:46:49.826Z,688.00
2019-02-23T06:47:49.810Z,716.00
2019-02-23T06:48:48.807Z,740.00
2019-02-23T06:49:48.791Z,764.00
2019-02-23T06:50:48.805Z,792.00
2019-02-23T06:51:48.836Z,812.00
2019-02-23T06:52:49.763Z,828.00
2019-02-23T06:53:48.758Z,844.00
2019-02-23T06:54:49.743Z,844.00
2019-02-23T06:55:51.683Z,848.00
2019-02-23T06:57:48.701Z,860.00
2019-02-23T06:58:49.691Z,864.00
2019-02-23T06:59:49.688Z,880.00
2019-02-23T07:00:48.704Z,892.00
2019-02-23T07:01:48.671Z,908.00
2019-02-23T07:03:48.639Z,928.00
2019-02-23T07:04:49.628Z,928.00
2019-02-23T07:06:48.603Z,920.00
2019-02-23T07:07:49.696Z,924.00
2019-02-23T07:08:49.588Z,932.00
2019-02-23T07:09:48.575Z,952.00
2019-02-23T07:10:48.563Z,968.00
2019-02-23T07:11:48.581Z,984.00
2019-02-23T07:12:49.543Z,1008.00
2019-02-23T07:14:48.515Z,1052.00
2019-02-23T07:15:48.509Z,1072.00
2019-02-23T07:16:49.528Z,1084.00
2019-02-23T07:17:51.172Z,1088.00
2019-02-23T07:18:49.487Z,1100.00
2019-02-23T07:19:49.463Z,1104.00
2019-02-23T07:20:49.469Z,1108.00
2019-02-23T07:21:48.448Z,1112.00
2019-02-23T07:22:49.467Z,1112.00
2019-02-23T07:23:48.423Z,1088.00
2019-02-23T07:24:48.409Z,1064.00
2019-02-23T07:26:48.391Z,1020.00
2019-02-23T07:27:49.425Z,988.00
2019-02-23T07:28:49.371Z,968.00
2019-02-23T07:29:49.352Z,956.00
2019-02-23T07:30:49.387Z,944.00
2019-02-23T07:31:49.341Z,920.00
2019-02-23T07:32:48.325Z,924.00
2019-02-23T07:33:48.351Z,924.00
2019-02-23T07:34:48.308Z,912.00
2019-02-23T07:35:51.161Z,900.00
2019-02-23T07:36:51.164Z,908.00
2019-02-23T07:37:48.281Z,908.00
2019-02-23T07:38:49.267Z,916.00
2019-02-23T07:39:49.255Z,924.00
2019-02-23T07:40:49.236Z,936.00
2019-02-23T07:41:48.238Z,948.00
2019-02-23T07:42:48.265Z,960.00
2019-02-23T07:43:49.218Z,964.00
2019-02-23T07:44:49.200Z,984.00
2019-02-23T07:45:49.207Z,992.00
2019-02-23T07:46:49.179Z,1012.00
2019-02-23T07:47:49.170Z,1032.00
2019-02-23T07:48:48.158Z,1048.00
2019-02-23T07:49:49.144Z,1072.00
2019-02-23T07:50:49.137Z,1092.00
2019-02-23T07:51:49.124Z,1112.00
2019-02-23T07:52:49.113Z,1132.00
2019-02-23T07:53:49.109Z,1140.00
2019-02-23T07:54:49.090Z,1156.00
2019-02-23T07:55:49.089Z,1164.00
2019-02-23T07:56:49.070Z,1168.00
2019-02-23T07:57:49.651Z,1176.00
2019-02-23T07:58:49.051Z,1188.00
2019-02-23T07:59:48.043Z,1188.00
2019-02-23T08:00:52.651Z,1200.00
2019-02-23T08:01:48.024Z,1200.00
2019-02-23T08:02:49.008Z,1220.00
2019-02-23T08:03:48.996Z,1224.00
2019-02-23T08:04:49.653Z,1232.00
2019-02-23T08:05:48.976Z,1244.00
2019-02-23T08:06:47.965Z,1264.00
2019-02-23T08:07:47.961Z,1296.00
2019-02-23T08:08:48.949Z,1304.00
2019-02-23T08:09:49.060Z,1320.00
2019-02-23T08:10:47.920Z,1332.00
2019-02-23T08:11:48.903Z,1340.00
2019-02-23T08:12:48.895Z,1356.00
2019-02-23T08:14:48.108Z,1384.00
2019-02-23T08:15:47.867Z,1392.00
2019-02-23T08:16:47.855Z,1412.00
2019-02-23T08:17:47.854Z,1436.00
2019-02-23T08:18:48.835Z,1448.00
2019-02-23T08:19:47.823Z,1468.00
2019-02-23T08:20:48.849Z,1484.00
2019-02-23T08:22:47.940Z,1508.00
2019-02-23T08:23:48.776Z,1520.00
2019-02-23T08:24:51.739Z,1532.00
2019-02-23T08:25:48.765Z,1536.00
2019-02-23T08:27:47.733Z,1560.00
2019-02-23T08:28:48.726Z,1576.00
2019-02-23T08:30:47.701Z,1600.00
2019-02-23T08:31:48.695Z,1604.00
2019-02-23T08:32:47.685Z,1612.00
2019-02-23T08:33:47.677Z,1612.00
2019-02-23T08:34:49.181Z,1612.00
2019-02-23T08:35:47.719Z,1612.00
2019-02-23T08:36:48.637Z,1612.00
2019-02-23T08:37:48.625Z,1616.00
2019-02-23T08:38:48.623Z,1612.00
2019-02-23T08:39:48.639Z,1608.00
2019-02-23T08:40:47.597Z,1600.00
2019-02-23T08:41:48.585Z,1576.00
2019-02-23T08:42:48.585Z,1564.00
2019-02-23T08:43:48.566Z,1552.00
2019-02-23T08:44:48.589Z,1544.00
2019-02-23T08:45:48.556Z,1544.00
2019-02-23T08:46:48.528Z,1540.00
2019-02-23T08:47:47.527Z,1540.00
2019-02-23T08:48:47.509Z,1544.00
2019-02-23T08:49:49.027Z,1524.00
2019-02-23T08:50:47.523Z,1552.00
2019-02-23T08:51:48.480Z,1568.00
2019-02-23T08:52:50.347Z,1568.00
2019-02-23T08:53:48.462Z,1588.00
2019-02-23T08:54:48.444Z,1596.00
2019-02-23T08:55:47.467Z,1604.00
2019-02-23T08:56:47.427Z,1608.00
2019-02-23T08:57:48.415Z,1612.00
2019-02-23T08:58:48.405Z,1616.00
2019-02-23T08:59:48.395Z,1612.00
2019-02-23T09:00:50.133Z,1608.00
2019-02-23T09:01:48.374Z,1624.00
2019-02-23T09:02:48.375Z,1640.00
2019-02-23T09:03:51.133Z,1648.00
2019-02-23T09:04:48.348Z,1660.00
2019-02-23T09:05:47.333Z,1664.00
2019-02-23T09:06:48.322Z,1668.00
2019-02-23T09:07:47.311Z,1676.00
2019-02-23T09:08:48.293Z,1688.00
2019-02-23T09:09:48.322Z,1704.00
2019-02-23T09:10:48.274Z,1716.00
2019-02-23T09:11:48.273Z,1720.00
2019-02-23T09:12:48.260Z,1728.00
2019-02-23T09:13:47.249Z,1740.00
2019-02-23T09:14:47.272Z,1744.00
2019-02-23T09:15:48.219Z,1752.00
2019-02-23T09:16:48.237Z,1760.00
2019-02-23T09:17:48.201Z,1772.00
2019-02-23T09:18:48.182Z,1784.00
2019-02-23T09:19:48.212Z,1800.00
2019-02-23T09:20:47.163Z,1816.00
2019-02-23T09:21:48.153Z,1820.00
2019-02-23T09:22:47.140Z,1836.00
2019-02-23T09:23:48.151Z,1848.00
2019-02-23T09:24:50.631Z,1860.00
2019-02-23T09:25:48.115Z,1868.00
2019-02-23T09:26:50.629Z,1880.00
2019-02-23T09:27:48.091Z,1876.00
2019-02-23T09:28:47.087Z,1880.00
2019-02-23T09:29:48.070Z,1884.00
2019-02-23T09:30:48.109Z,1896.00
2019-02-23T09:31:48.074Z,1900.00
2019-02-23T09:32:48.032Z,1892.00
2019-02-23T09:33:48.030Z,1904.00
2019-02-23T09:34:48.013Z,1904.00
2019-02-23T09:35:48.012Z,1908.00
2019-02-23T09:36:48.022Z,1912.00
2019-02-23T09:37:48.000Z,1912.00
2019-02-23T09:38:47.982Z,1920.00
2019-02-23T09:39:47.957Z,1960.00
2019-02-23T09:40:46.950Z,1972.00
2019-02-23T09:41:46.942Z,1996.00
2019-02-23T09:42:47.981Z,2004.00
2019-02-23T09:43:47.920Z,1956.00
2019-02-23T09:44:47.907Z,2028.00
2019-02-23T09:45:47.891Z,2048.00
2019-02-23T09:46:47.888Z,2040.00
2019-02-23T09:47:47.866Z,2064.00
2019-02-23T09:48:46.900Z,2052.00
2019-02-23T09:49:47.844Z,2056.00
2019-02-23T09:50:47.837Z,2044.00
2019-02-23T09:51:46.852Z,2020.00
2019-02-23T09:52:47.817Z,2004.00
2019-02-23T09:53:46.808Z,2012.00
2019-02-23T09:54:46.784Z,2012.00
2019-02-23T09:55:47.785Z,2016.00
2019-02-23T09:56:47.776Z,2000.00
2019-02-23T09:57:47.772Z,2012.00
2019-02-23T09:58:47.761Z,2012.00
2019-02-23T09:59:47.744Z,1988.00
2019-02-23T10:00:47.724Z,1992.00
2019-02-23T10:01:48.619Z,1988.00
2019-02-23T10:02:46.732Z,1968.00
2019-02-23T10:03:46.719Z,1800.00
2019-02-23T10:04:47.710Z,1932.00
2019-02-23T10:05:46.679Z,1952.00
2019-02-23T10:06:46.668Z,1960.00
2019-02-23T10:07:47.658Z,1956.00
2019-02-23T10:08:47.667Z,1944.00
2019-02-23T10:09:46.634Z,1976.00
2019-02-23T10:10:47.612Z,2012.00
2019-02-23T10:11:46.605Z,2100.00
2019-02-23T10:12:47.593Z,2144.00
2019-02-23T10:13:46.588Z,2116.00
2019-02-23T10:14:47.596Z,2096.00
2019-02-23T10:15:47.558Z,2064.00
2019-02-23T10:16:47.548Z,2016.00
2019-02-23T10:17:49.106Z,2000.00
2019-02-23T10:18:46.530Z,1996.00
2019-02-23T10:19:47.511Z,1968.00
2019-02-23T10:20:46.538Z,1932.00
2019-02-23T10:21:46.498Z,1932.00
2019-02-23T10:22:47.481Z,1924.00
2019-02-23T10:23:46.478Z,1920.00
2019-02-23T10:24:47.496Z,1920.00
2019-02-23T10:25:47.450Z,1904.00
2019-02-23T10:26:46.454Z,1892.00
2019-02-23T10:27:47.427Z,1868.00
2019-02-23T10:28:47.412Z,1828.00
2019-02-23T10:29:47.408Z,1812.00
2019-02-23T10:30:47.411Z,1832.00
2019-02-23T10:31:48.156Z,1840.00
2019-02-23T10:32:47.372Z,1856.00
2019-02-23T10:33:47.883Z,1864.00
2019-02-23T10:34:47.387Z,1912.00
2019-02-23T10:35:47.344Z,1940.00
2019-02-23T10:36:47.351Z,1952.00
2019-02-23T10:37:47.316Z,1968.00
2019-02-23T10:38:46.312Z,1952.00
2019-02-23T10:39:47.292Z,1836.00
2019-02-23T10:40:47.322Z,1964.00
2019-02-23T10:41:47.320Z,1984.00
2019-02-23T10:42:47.269Z,2016.00
2019-02-23T10:43:46.256Z,2040.00
2019-02-23T10:44:47.241Z,2060.00
2019-02-23T10:45:47.230Z,2068.00
2019-02-23T10:46:47.216Z,2080.00
2019-02-23T10:47:46.234Z,2076.00
2019-02-23T10:48:47.204Z,2084.00
2019-02-23T10:49:47.189Z,2064.00
2019-02-23T10:50:46.207Z,2056.00
2019-02-23T10:51:47.170Z,2052.00
2019-02-23T10:52:46.154Z,2064.00
2019-02-23T10:53:47.138Z,2100.00
2019-02-23T10:54:47.191Z,2152.00
2019-02-23T10:55:47.152Z,2260.00
2019-02-23T10:56:47.114Z,2348.00
2019-02-23T10:57:47.116Z,2420.00
2019-02-23T10:58:47.090Z,2488.00
2019-02-23T10:59:47.075Z,2504.00
2019-02-23T11:00:47.592Z,2492.00
2019-02-23T11:01:47.594Z,2480.00
2019-02-23T11:02:47.039Z,2472.00
2019-02-23T11:03:47.033Z,2484.00
2019-02-23T11:04:46.032Z,2520.00
2019-02-23T11:05:46.012Z,2612.00
2019-02-23T11:06:46.004Z,2672.00
2019-02-23T11:07:46.032Z,2616.00
2019-02-23T11:08:45.978Z,2652.00
2019-02-23T11:11:54.858Z,2756.00
2019-02-23T11:12:55.662Z,2700.00
2019-02-23T11:13:58.390Z,2584.00
2019-02-23T11:14:55.640Z,2680.00
2019-02-23T11:15:55.626Z,2608.00
2019-02-23T11:16:55.646Z,2636.00
2019-02-23T11:17:55.607Z,2520.00
2019-02-23T11:18:55.593Z,2472.00
2019-02-23T11:19:55.583Z,2428.00
2019-02-23T11:20:55.600Z,2284.00
2019-02-23T11:21:55.562Z,2292.00
2019-02-23T11:22:55.558Z,2276.00
2019-02-23T11:23:55.539Z,2276.00
2019-02-23T11:24:55.531Z,2320.00
2019-02-23T11:25:55.565Z,2376.00
2019-02-23T11:26:55.509Z,2368.00
2019-02-23T11:27:55.502Z,2436.00
2019-02-23T11:29:54.482Z,2452.00
2019-02-23T11:30:55.474Z,2352.00
2019-02-23T11:31:55.488Z,2288.00
2019-02-23T11:32:55.450Z,2332.00
2019-02-23T11:33:55.452Z,2312.00
2019-02-23T11:34:55.422Z,2272.00
2019-02-23T11:35:55.404Z,2336.00
2019-02-23T11:36:55.401Z,2408.00
2019-02-23T11:37:56.368Z,2420.00
2019-02-23T11:38:55.380Z,2484.00
2019-02-23T11:39:55.379Z,2500.00
2019-02-23T11:40:57.879Z,2452.00
2019-02-23T11:41:55.349Z,2536.00
2019-02-23T11:42:55.338Z,2600.00
2019-02-23T11:43:55.356Z,2648.00
2019-02-23T11:44:55.319Z,2660.00
2019-02-23T11:45:55.302Z,2660.00
2019-02-23T11:47:00.797Z,2712.00
2019-02-23T11:47:55.290Z,2784.00
2019-02-23T11:48:55.297Z,2832.00
2019-02-23T11:49:55.259Z,2872.00
2019-02-23T11:50:55.245Z,2852.00
2019-02-23T11:51:55.251Z,2888.00
2019-02-23T11:52:55.226Z,2892.00
2019-02-23T11:53:55.489Z,2844.00
2019-02-23T11:54:55.238Z,2712.00
2019-02-23T11:55:55.197Z,2804.00
2019-02-23T11:56:55.189Z,2872.00
2019-02-23T11:57:55.180Z,2888.00
2019-02-23T11:58:55.216Z,2848.00
2019-02-23T11:59:55.155Z,2880.00
2019-02-23T12:00:55.142Z,2900.00
2019-02-23T12:01:55.143Z,2844.00
2019-02-23T12:02:55.126Z,2772.00
2019-02-23T12:03:55.111Z,2836.00
2019-02-23T12:04:55.124Z,2748.00
2019-02-23T12:05:55.094Z,2616.00
2019-02-23T12:06:55.079Z,2604.00
2019-02-23T12:07:55.069Z,2732.00
2019-02-23T12:08:57.258Z,2984.00
2019-02-23T12:09:55.047Z,3100.00
2019-02-23T12:10:55.060Z,3332.00
2019-02-23T12:11:55.020Z,3504.00
2019-02-23T12:12:55.017Z,3656.00
2019-02-23T12:13:55.044Z,3772.00
2019-02-23T12:14:54.998Z,3808.00
2019-02-23T12:15:55.002Z,3832.00
2019-02-23T12:16:54.982Z,3812.00
2019-02-23T12:17:54.961Z,3712.00
2019-02-23T12:18:57.859Z,3604.00
2019-02-23T12:19:55.448Z,3504.00
2019-02-23T12:20:54.933Z,3408.00
2019-02-23T12:21:54.984Z,3356.00
2019-02-23T12:22:54.919Z,3380.00
2019-02-23T12:24:05.470Z,3528.00
2019-02-23T12:24:54.880Z,3628.00
2019-02-23T12:25:54.939Z,3500.00
2019-02-23T12:26:54.874Z,3440.00
2019-02-23T12:28:53.835Z,3292.00
2019-02-23T12:29:54.835Z,3296.00
2019-02-23T12:30:54.826Z,3288.00
2019-02-23T12:31:54.805Z,3264.00
2019-02-23T12:32:54.795Z,3268.00
2019-02-23T12:33:54.828Z,3184.00
2019-02-23T12:34:54.783Z,3164.00
2019-02-23T12:35:54.767Z,3088.00
2019-02-23T12:36:57.660Z,2968.00
2019-02-23T12:37:54.747Z,2996.00
2019-02-23T12:38:54.731Z,3028.00
2019-02-23T12:39:54.768Z,2992.00
2019-02-23T12:40:54.709Z,2976.00
2019-02-23T12:41:54.779Z,3100.00
2019-02-23T12:42:54.697Z,3160.00
2019-02-23T12:43:54.679Z,3344.00
2019-02-23T12:44:54.689Z,3376.00
2019-02-23T12:45:54.657Z,3424.00
2019-02-23T12:46:54.651Z,3448.00
2019-02-23T12:47:54.658Z,3536.00
2019-02-23T12:48:54.621Z,3628.00
2019-02-23T12:49:54.617Z,3692.00
2019-02-23T12:50:54.607Z,3680.00
2019-02-23T12:51:54.587Z,3732.00
2019-02-23T12:52:55.345Z,3764.00
2019-02-23T12:53:54.573Z,3800.00
2019-02-23T12:54:54.591Z,3816.00
2019-02-23T12:55:54.538Z,3832.00